Terminal Aerodrome Forecast
Issued by NWS

Home | Current Version | Previous Version | Graphics & Text | Print | Product List | Glossary On
Versions: 1 2 3 4 5 6 7 8 9 10 11 12 13 14 15 16 17 18
000
FTUS43 KPAH 232014 AAC
TAFOWB
TAF AMD
KOWB 232014Z 2320/2418 VRB03KT P6SM -SHRA SCT025 OVC040
     FM232100 31005KT P6SM VCTS BKN025CB
     FM240000 34007KT P6SM OVC045
     FM240300 33005KT P6SM BKN150=

USA.gov is the U.S. government's official web portal to all federal, state and local government web resources and services.